createdAt,value
2023-02-03T00:01:13.088Z,7.10
2023-02-03T00:03:59.618Z,7.20
2023-02-03T00:06:46.519Z,7.20
2023-02-03T00:09:32.897Z,7.20
2023-02-03T00:12:19.275Z,7.20
2023-02-03T00:15:08.488Z,7.20
2023-02-03T00:17:54.779Z,7.30
2023-02-03T00:20:41.386Z,7.20
2023-02-03T00:23:30.047Z,7.30
2023-02-03T00:26:19.645Z,7.20
2023-02-03T00:29:07.313Z,7.30
2023-02-03T00:31:55.724Z,7.20
2023-02-03T00:34:42.217Z,7.20
2023-02-03T00:37:28.508Z,7.20
2023-02-03T00:40:15.127Z,7.20
2023-02-03T00:43:02.097Z,7.20
2023-02-03T00:45:48.720Z,7.20
2023-02-03T00:48:36.799Z,7.20
2023-02-03T00:51:23.433Z,7.20
2023-02-03T00:54:11.011Z,7.20
2023-02-03T00:56:57.770Z,7.20
2023-02-03T00:59:44.793Z,7.20
2023-02-03T01:02:31.643Z,7.20
2023-02-03T01:05:19.901Z,7.20
2023-02-03T01:08:06.628Z,7.20
2023-02-03T01:10:53.441Z,7.20
2023-02-03T01:13:41.240Z,7.20
2023-02-03T01:16:29.818Z,7.20
2023-02-03T01:19:16.945Z,7.10
2023-02-03T01:22:04.933Z,7.10
2023-02-03T01:24:51.403Z,7.10
2023-02-03T01:27:37.913Z,7.10
2023-02-03T01:30:25.149Z,7.10
2023-02-03T01:33:11.978Z,7.10
2023-02-03T01:36:01.206Z,7.10
2023-02-03T01:38:49.563Z,7.10
2023-02-03T01:41:38.876Z,7.10
2023-02-03T01:44:41.610Z,7.10
2023-02-03T01:47:32.841Z,7.10
2023-02-03T01:50:23.613Z,7.10
2023-02-03T01:53:12.865Z,7.10
2023-02-03T01:56:02.335Z,7.10
2023-02-03T01:58:50.574Z,7.00
2023-02-03T02:01:38.014Z,7.00
2023-02-03T02:04:32.280Z,7.00
2023-02-03T02:07:18.946Z,7.00
2023-02-03T02:10:06.624Z,7.00
2023-02-03T02:12:57.997Z,6.90
2023-02-03T02:15:52.967Z,6.90
2023-02-03T02:18:54.601Z,6.90
2023-02-03T02:21:51.420Z,6.90
2023-02-03T02:25:26.198Z,6.90
2023-02-03T02:28:43.773Z,6.90
2023-02-03T02:31:51.718Z,6.90
2023-02-03T02:34:54.399Z,6.80
2023-02-03T02:37:49.056Z,6.80
2023-02-03T02:40:43.435Z,6.80
2023-02-03T02:43:34.966Z,6.90
2023-02-03T02:46:28.872Z,6.90
2023-02-03T02:49:20.267Z,6.90
2023-02-03T02:52:09.260Z,6.90
2023-02-03T02:55:01.186Z,6.90
2023-02-03T02:57:49.501Z,6.90
2023-02-03T03:00:41.151Z,6.90
2023-02-03T03:03:28.942Z,6.90
2023-02-03T03:06:21.709Z,6.90
2023-02-03T03:09:11.643Z,7.00
2023-02-03T03:12:03.362Z,7.00
2023-02-03T03:14:55.966Z,7.00
2023-02-03T03:17:47.626Z,7.00
2023-02-03T03:20:37.436Z,7.00
2023-02-03T03:23:30.075Z,7.00
2023-02-03T03:26:23.798Z,7.00
2023-02-03T03:29:16.884Z,7.00
2023-02-03T03:32:03.809Z,7.10
2023-02-03T03:34:51.188Z,7.10
2023-02-03T03:37:42.869Z,7.10
2023-02-03T03:40:34.529Z,7.10
2023-02-03T03:43:25.136Z,7.00
2023-02-03T03:46:14.994Z,7.00
2023-02-03T03:49:04.213Z,7.00
2023-02-03T03:51:54.135Z,7.10
2023-02-03T03:54:43.507Z,7.10
2023-02-03T03:57:35.877Z,7.00
2023-02-03T04:00:25.731Z,7.10
2023-02-03T04:03:17.067Z,7.00
2023-02-03T04:06:03.573Z,7.00
2023-02-03T04:08:50.137Z,7.00
2023-02-03T04:11:53.939Z,7.00
2023-02-03T04:14:42.151Z,7.00
2023-02-03T04:17:28.601Z,6.90
2023-02-03T04:20:16.028Z,6.90
2023-02-03T04:23:03.010Z,6.90
2023-02-03T04:25:49.613Z,6.90
2023-02-03T04:28:36.133Z,6.90
2023-02-03T04:31:24.385Z,6.90
2023-02-03T04:34:11.279Z,6.90
2023-02-03T04:36:57.900Z,6.80
2023-02-03T04:39:44.174Z,6.80
2023-02-03T04:42:30.612Z,6.80
2023-02-03T04:45:17.192Z,6.80
2023-02-03T04:48:05.008Z,6.80
2023-02-03T04:50:51.558Z,6.80
2023-02-03T04:53:38.338Z,6.80
2023-02-03T04:56:24.782Z,6.80
2023-02-03T04:59:11.165Z,6.80
2023-02-03T05:01:57.794Z,6.80
2023-02-03T05:04:45.375Z,6.80
2023-02-03T05:07:31.989Z,6.80
2023-02-03T05:10:18.519Z,6.80
2023-02-03T05:13:05.315Z,6.80
2023-02-03T05:15:51.683Z,6.80
2023-02-03T05:18:38.600Z,6.80
2023-02-03T05:21:26.267Z,6.80
2023-02-03T05:24:12.962Z,6.80
2023-02-03T05:26:59.440Z,6.80
2023-02-03T05:29:46.389Z,6.80
2023-02-03T05:32:33.282Z,6.90
2023-02-03T05:35:20.021Z,6.90
2023-02-03T05:38:07.978Z,6.90
2023-02-03T05:41:12.234Z,6.80
2023-02-03T05:43:59.049Z,6.80
2023-02-03T05:46:45.758Z,6.80
2023-02-03T05:49:32.770Z,6.80
2023-02-03T05:52:19.052Z,6.80
2023-02-03T05:55:07.291Z,6.90
2023-02-03T05:57:53.650Z,6.80
2023-02-03T06:00:40.238Z,6.90
2023-02-03T06:03:27.023Z,6.80
2023-02-03T06:06:14.008Z,6.80
2023-02-03T06:09:01.379Z,6.90
2023-02-03T06:11:49.535Z,6.90
2023-02-03T06:14:36.144Z,6.90
2023-02-03T06:17:22.614Z,6.90
2023-02-03T06:20:10.385Z,6.90
2023-02-03T06:22:56.850Z,7.00
2023-02-03T06:25:43.690Z,6.90
2023-02-03T06:28:33.601Z,6.90
2023-02-03T06:31:20.314Z,6.90
2023-02-03T06:34:07.168Z,6.90
2023-02-03T06:36:53.849Z,6.90
2023-02-03T06:39:40.089Z,6.90
2023-02-03T06:42:26.525Z,6.90
2023-02-03T06:45:14.715Z,6.90
2023-02-03T06:48:00.985Z,6.80
2023-02-03T06:50:48.718Z,6.80
2023-02-03T06:53:35.787Z,6.80
2023-02-03T06:56:22.178Z,6.70
2023-02-03T06:59:09.092Z,6.80
2023-02-03T07:01:57.165Z,6.80
2023-02-03T07:04:45.070Z,6.80
2023-02-03T07:07:34.096Z,6.80
2023-02-03T07:10:21.401Z,6.80
2023-02-03T07:13:08.285Z,6.80
2023-02-03T07:15:54.778Z,6.80
2023-02-03T07:18:47.505Z,6.80
2023-02-03T07:21:34.584Z,6.80
2023-02-03T07:24:20.979Z,6.80
2023-02-03T07:27:07.303Z,6.80
2023-02-03T07:29:54.249Z,6.80
2023-02-03T07:32:40.539Z,6.80
2023-02-03T07:35:28.375Z,6.80
2023-02-03T07:38:15.279Z,6.90
2023-02-03T07:41:02.142Z,6.90
2023-02-03T07:43:49.199Z,6.90
2023-02-03T07:46:39.719Z,6.90
2023-02-03T07:49:26.509Z,6.90
2023-02-03T07:52:14.429Z,6.90
2023-02-03T07:55:01.084Z,6.90
2023-02-03T07:57:50.922Z,6.90
2023-02-03T08:00:37.858Z,6.90
2023-02-03T08:03:24.827Z,6.90
2023-02-03T08:06:11.600Z,6.90
2023-02-03T08:08:59.332Z,7.00
2023-02-03T08:11:46.594Z,6.90
2023-02-03T08:14:33.140Z,6.90
2023-02-03T08:17:19.535Z,6.90
2023-02-03T08:20:07.109Z,6.90
2023-02-03T08:22:54.159Z,6.90
2023-02-03T08:25:42.276Z,6.90
2023-02-03T08:28:28.902Z,6.80
2023-02-03T08:31:15.403Z,6.80
2023-02-03T08:34:02.152Z,6.80
2023-02-03T08:36:48.616Z,6.80
2023-02-03T08:39:36.393Z,6.90
2023-02-03T08:42:24.394Z,6.90
2023-02-03T08:45:11.871Z,7.00
2023-02-03T08:47:58.715Z,6.90
2023-02-03T08:50:51.877Z,6.90
2023-02-03T08:53:38.667Z,6.80
2023-02-03T08:56:27.470Z,6.90
2023-02-03T08:59:16.129Z,6.90
2023-02-03T09:02:02.723Z,6.90
2023-02-03T09:04:50.271Z,7.00
2023-02-03T09:07:36.912Z,6.90
2023-02-03T09:10:23.342Z,6.90
2023-02-03T09:13:10.021Z,6.90
2023-02-03T09:16:01.024Z,7.00
2023-02-03T09:18:47.859Z,7.00
2023-02-03T09:21:36.699Z,7.00
2023-02-03T09:24:25.744Z,7.00
2023-02-03T09:27:12.642Z,7.00
2023-02-03T09:29:59.340Z,7.10
2023-02-03T09:32:53.904Z,7.10
2023-02-03T09:35:40.466Z,7.20
2023-02-03T09:38:28.502Z,7.20
2023-02-03T09:41:28.065Z,7.30
2023-02-03T09:44:18.769Z,7.30
2023-02-03T09:47:13.861Z,7.30
2023-02-03T09:50:05.144Z,7.30
2023-02-03T09:52:53.031Z,7.20
2023-02-03T09:55:43.160Z,7.30
2023-02-03T09:58:34.052Z,7.20
2023-02-03T10:01:22.248Z,7.20
2023-02-03T10:04:28.861Z,7.20
2023-02-03T10:07:25.274Z,7.40
2023-02-03T10:10:22.841Z,7.50
2023-02-03T10:13:21.123Z,7.50
2023-02-03T10:16:39.690Z,7.40
2023-02-03T10:19:34.815Z,7.50
2023-02-03T10:22:28.107Z,7.50
2023-02-03T10:25:20.829Z,7.50
2023-02-03T10:28:16.455Z,7.40
2023-02-03T10:31:10.145Z,7.40
2023-02-03T10:34:01.747Z,7.40
2023-02-03T10:36:55.930Z,7.40
2023-02-03T10:39:47.237Z,7.40
2023-02-03T10:42:49.343Z,7.40
2023-02-03T10:45:39.559Z,7.40
2023-02-03T10:48:26.826Z,7.40
2023-02-03T10:51:21.754Z,7.40
2023-02-03T10:54:29.192Z,7.50
2023-02-03T10:57:17.514Z,7.50
2023-02-03T11:00:24.826Z,7.50
2023-02-03T11:03:24.046Z,7.50
2023-02-03T11:06:13.090Z,7.60
2023-02-03T11:08:59.873Z,7.60
2023-02-03T11:11:46.569Z,7.60
2023-02-03T11:14:40.273Z,7.60
2023-02-03T11:17:29.520Z,7.60
2023-02-03T11:20:18.740Z,7.60
2023-02-03T11:23:06.594Z,7.60
2023-02-03T11:25:53.568Z,7.60
2023-02-03T11:28:44.249Z,7.70
2023-02-03T11:31:35.254Z,7.70
2023-02-03T11:34:26.162Z,7.80
2023-02-03T11:37:28.240Z,7.70
2023-02-03T11:40:30.934Z,7.70
2023-02-03T11:43:19.058Z,7.70
2023-02-03T11:46:07.773Z,7.70
2023-02-03T11:49:09.851Z,7.70
2023-02-03T11:52:04.824Z,7.70
2023-02-03T11:54:58.753Z,7.80
2023-02-03T11:57:53.777Z,7.80
2023-02-03T12:00:49.790Z,7.90
2023-02-03T12:04:05.137Z,7.90
2023-02-03T12:07:09.089Z,8.10
2023-02-03T12:10:05.284Z,8.20
2023-02-03T12:12:58.209Z,8.30
2023-02-03T12:16:02.660Z,8.30
2023-02-03T12:19:02.070Z,8.30
2023-02-03T12:21:57.569Z,8.20
2023-02-03T12:24:55.678Z,8.10
2023-02-03T12:27:49.825Z,8.10
2023-02-03T12:30:41.828Z,8.10
2023-02-03T12:33:32.868Z,8.10
2023-02-03T12:36:24.609Z,8.10
2023-02-03T12:39:20.841Z,8.10
2023-02-03T12:42:13.705Z,8.10
2023-02-03T12:45:05.848Z,8.10
2023-02-03T12:47:57.898Z,8.10
2023-02-03T12:50:49.549Z,8.00
2023-02-03T12:53:41.631Z,8.00
2023-02-03T12:56:36.666Z,8.10
2023-02-03T12:59:26.496Z,8.10
2023-02-03T13:02:19.380Z,8.20
2023-02-03T13:05:17.454Z,8.30
2023-02-03T13:08:12.361Z,8.30
2023-02-03T13:11:10.556Z,8.40
2023-02-03T13:14:03.301Z,8.40
2023-02-03T13:16:54.922Z,8.40
2023-02-03T13:19:46.545Z,8.40
2023-02-03T13:22:33.955Z,8.50
2023-02-03T13:25:26.741Z,8.50
2023-02-03T13:28:20.768Z,8.50
2023-02-03T13:31:20.431Z,8.50
2023-02-03T13:34:27.971Z,8.50
2023-02-03T13:37:32.062Z,8.50
2023-02-03T13:40:30.160Z,8.50
2023-02-03T13:43:37.335Z,8.50
2023-02-03T13:46:29.110Z,8.40
2023-02-03T13:49:25.332Z,8.40
2023-02-03T13:52:25.902Z,8.40
2023-02-03T13:55:30.014Z,8.40
2023-02-03T13:58:23.086Z,8.40
2023-02-03T14:01:34.314Z,8.30
2023-02-03T14:04:55.496Z,8.30
2023-02-03T14:07:42.449Z,8.30
2023-02-03T14:10:31.993Z,8.40
2023-02-03T14:13:21.997Z,8.30
2023-02-03T14:16:25.011Z,8.40
2023-02-03T14:19:14.767Z,8.30
2023-02-03T14:22:05.838Z,8.30
2023-02-03T14:24:55.612Z,8.40
2023-02-03T14:27:42.359Z,8.40
2023-02-03T14:30:29.172Z,8.30
2023-02-03T14:33:16.047Z,8.30
2023-02-03T14:36:05.764Z,8.40
2023-02-03T14:38:52.447Z,8.30
2023-02-03T14:41:51.081Z,8.30
2023-02-03T14:44:48.665Z,8.30
2023-02-03T14:47:50.946Z,8.30
2023-02-03T14:50:55.609Z,8.40
2023-02-03T14:53:55.923Z,8.40
2023-02-03T14:57:05.302Z,8.30
2023-02-03T14:59:58.762Z,8.30
2023-02-03T15:03:19.917Z,8.30
2023-02-03T15:06:07.374Z,8.30
2023-02-03T15:08:59.833Z,8.30
2023-02-03T15:11:47.819Z,8.30
2023-02-03T15:14:34.400Z,8.30
2023-02-03T15:17:24.704Z,8.30
2023-02-03T15:20:38.716Z,8.30
2023-02-03T15:23:27.297Z,8.30
2023-02-03T15:26:19.857Z,8.30
2023-02-03T15:29:07.112Z,8.30
2023-02-03T15:32:01.301Z,8.20
2023-02-03T15:34:49.857Z,8.30
2023-02-03T15:37:49.517Z,8.30
2023-02-03T15:40:42.235Z,8.20
2023-02-03T15:43:36.452Z,8.20
2023-02-03T15:46:30.607Z,8.20
2023-02-03T15:49:20.653Z,8.30
2023-02-03T15:52:14.034Z,8.20
2023-02-03T15:55:09.989Z,8.20
2023-02-03T15:57:56.826Z,8.20
2023-02-03T16:00:49.053Z,8.10
2023-02-03T16:03:40.155Z,8.10
2023-02-03T16:06:30.389Z,8.10
2023-02-03T16:09:30.064Z,8.10
2023-02-03T16:12:19.765Z,8.00
2023-02-03T16:15:06.561Z,8.10
2023-02-03T16:17:58.340Z,8.00
2023-02-03T16:20:50.492Z,8.00
2023-02-03T16:23:37.102Z,8.00
2023-02-03T16:26:26.207Z,8.00
2023-02-03T16:29:32.963Z,8.00
2023-02-03T16:32:37.825Z,7.90
2023-02-03T16:35:43.271Z,7.90
2023-02-03T16:38:47.206Z,7.90
2023-02-03T16:41:51.627Z,7.90
2023-02-03T16:44:55.512Z,7.90
2023-02-03T16:48:00.396Z,7.90
2023-02-03T16:50:51.184Z,7.90
2023-02-03T16:53:37.618Z,7.90
2023-02-03T16:56:24.785Z,8.00
2023-02-03T16:59:11.286Z,8.00
2023-02-03T17:01:57.967Z,8.00
2023-02-03T17:04:44.693Z,8.00
2023-02-03T17:07:32.345Z,8.00
2023-02-03T17:10:19.147Z,8.00
2023-02-03T17:13:07.917Z,7.90
2023-02-03T17:15:54.841Z,7.90
2023-02-03T17:18:41.463Z,7.90
2023-02-03T17:21:29.908Z,8.00
2023-02-03T17:24:18.206Z,8.00
2023-02-03T17:27:04.930Z,8.00
2023-02-03T17:29:51.404Z,8.00
2023-02-03T17:32:38.188Z,8.00
2023-02-03T17:35:24.605Z,8.00
2023-02-03T17:38:11.608Z,8.00
2023-02-03T17:56:08.987Z,8.00
2023-02-03T17:58:57.236Z,8.00
2023-02-03T18:01:44.303Z,8.00
2023-02-03T18:04:31.146Z,8.10
2023-02-03T18:07:17.821Z,8.00
2023-02-03T18:10:04.434Z,8.00
2023-02-03T18:12:52.525Z,8.00
2023-02-03T18:15:39.611Z,8.10
2023-02-03T18:18:26.674Z,8.00
2023-02-03T18:21:15.873Z,8.00
2023-02-03T18:24:04.033Z,8.10
2023-02-03T18:26:52.620Z,8.10
2023-02-03T18:29:42.239Z,8.10
2023-02-03T18:32:28.562Z,8.00
2023-02-03T18:35:17.143Z,8.00
2023-02-03T18:38:04.668Z,8.00
2023-02-03T18:40:55.127Z,8.00
2023-02-03T18:43:42.001Z,8.00
2023-02-03T18:46:31.879Z,8.00
2023-02-03T18:49:18.798Z,8.00
2023-02-03T18:52:06.404Z,8.00
2023-02-03T18:54:52.908Z,7.90
2023-02-03T18:57:39.412Z,7.90
2023-02-03T19:00:27.045Z,7.90
2023-02-03T19:03:15.017Z,7.90
2023-02-03T19:06:01.748Z,7.90
2023-02-03T19:08:48.086Z,7.90
2023-02-03T19:11:35.053Z,7.90
2023-02-03T19:14:21.639Z,7.90
2023-02-03T19:17:10.133Z,7.90
2023-02-03T19:19:57.822Z,7.90
2023-02-03T19:22:44.267Z,7.90
2023-02-03T19:25:30.712Z,7.90
2023-02-03T19:28:20.205Z,7.90
2023-02-03T19:31:08.842Z,7.90
2023-02-03T19:33:59.617Z,7.90
2023-02-03T19:36:47.888Z,7.90
2023-02-03T19:39:35.022Z,7.80
2023-02-03T19:42:21.517Z,7.80
2023-02-03T19:45:08.416Z,7.80
2023-02-03T19:47:55.198Z,7.80
2023-02-03T19:50:45.778Z,7.80
2023-02-03T19:53:35.005Z,7.80
2023-02-03T19:56:21.309Z,7.80
2023-02-03T19:59:07.879Z,7.80
2023-02-03T20:01:56.578Z,7.80
2023-02-03T20:04:45.212Z,7.80
2023-02-03T20:07:33.730Z,7.90
2023-02-03T20:10:21.358Z,7.90
2023-02-03T20:13:07.871Z,7.80
2023-02-03T20:15:54.269Z,7.80
2023-02-03T20:18:40.724Z,7.80
2023-02-03T20:21:27.075Z,7.80
2023-02-03T20:24:13.943Z,7.80
2023-02-03T20:27:01.909Z,7.70
2023-02-03T20:29:49.566Z,7.80
2023-02-03T20:32:36.808Z,7.70
2023-02-03T20:35:25.159Z,7.80
2023-02-03T20:38:11.807Z,7.80
2023-02-03T20:40:58.691Z,7.70
2023-02-03T20:43:46.601Z,7.80
2023-02-03T20:46:32.902Z,7.80
2023-02-03T20:49:20.465Z,7.80
2023-02-03T20:52:12.213Z,7.80
2023-02-03T20:54:58.899Z,7.80
2023-02-03T20:57:47.608Z,7.80
2023-02-03T21:00:36.121Z,7.90
2023-02-03T21:03:40.190Z,7.90
2023-02-03T21:06:28.910Z,7.90
2023-02-03T21:09:17.031Z,7.90
2023-02-03T21:12:03.715Z,7.90
2023-02-03T21:14:53.102Z,7.90
2023-02-03T21:17:40.944Z,7.90
2023-02-03T21:20:31.212Z,7.90
2023-02-03T21:23:18.066Z,7.90
2023-02-03T21:26:18.968Z,7.90
2023-02-03T21:29:05.338Z,7.90
2023-02-03T21:31:52.113Z,7.90
2023-02-03T21:34:43.871Z,7.90
2023-02-03T21:37:42.237Z,7.90
2023-02-03T21:40:30.764Z,7.90
2023-02-03T21:43:18.999Z,7.90
2023-02-03T21:46:06.143Z,7.90
2023-02-03T21:48:53.866Z,7.90
2023-02-03T21:51:41.680Z,8.00
2023-02-03T21:54:30.358Z,7.90
2023-02-03T21:57:17.884Z,7.90
2023-02-03T22:00:38.910Z,7.90
2023-02-03T22:03:28.144Z,7.90
2023-02-03T22:06:19.837Z,7.90
2023-02-03T22:09:11.451Z,7.90
2023-02-03T22:11:58.676Z,7.90
2023-02-03T22:14:46.030Z,7.90
2023-02-03T22:17:32.440Z,7.90
2023-02-03T22:20:19.150Z,7.90
2023-02-03T22:23:05.977Z,7.90
2023-02-03T22:25:54.318Z,8.00
2023-02-03T22:28:41.756Z,7.90
2023-02-03T22:31:28.370Z,8.00
2023-02-03T22:34:15.534Z,7.90
2023-02-03T22:37:02.352Z,7.90
2023-02-03T22:39:49.276Z,8.00
2023-02-03T22:42:37.135Z,8.00
2023-02-03T22:45:23.702Z,8.00
2023-02-03T22:48:09.966Z,8.00
2023-02-03T22:50:58.131Z,8.00
2023-02-03T22:53:44.850Z,7.90
2023-02-03T22:56:31.278Z,7.90
2023-02-03T22:59:18.870Z,7.90
2023-02-03T23:02:05.437Z,8.00
2023-02-03T23:04:51.702Z,8.00
2023-02-03T23:07:39.611Z,7.90
2023-02-03T23:10:30.685Z,7.90
2023-02-03T23:13:17.287Z,7.90
2023-02-03T23:16:05.686Z,7.90
2023-02-03T23:18:52.611Z,7.90
2023-02-03T23:21:39.162Z,7.90
2023-02-03T23:24:26.062Z,8.00
2023-02-03T23:27:12.681Z,8.00
2023-02-03T23:29:59.060Z,7.90
2023-02-03T23:32:47.302Z,7.90
2023-02-03T23:35:49.306Z,8.00
2023-02-03T23:38:36.158Z,7.90
2023-02-03T23:41:22.666Z,7.90
2023-02-03T23:44:09.288Z,7.90
2023-02-03T23:46:56.014Z,7.90
2023-02-03T23:49:43.646Z,7.90
2023-02-03T23:52:35.412Z,7.80
2023-02-03T23:55:23.371Z,7.80
2023-02-03T23:58:10.044Z,7.80
